logo dgac
Domingo 24 de Junio del 2018

Metar

Buscar por aerodromo o helipuerto
Ingrese nombre de aeródromo, localidad o designador OACI:


METAR del 24-06-2018 a las 22:00 UTC
METAR SAZS 242200Z NIL
Nan: NIL
METAR del 24-06-2018 a las 22:00 UTC
METAR SAWH 242200Z 36002KT 2500 SN OVC010 00/M01 Q0992
Viento: dirección 360 grados, velocidad 2 nudos
Visibilidad: 2500 metros
Nieve
Nubes: Cubierto a 1000 pies sobre el nivel del aeródromo
Temperatura: 0 °C
Rocío: -1 °C
Humedad_relativa: 93%
Presión: 992 hPa
METAR del 24-06-2018 a las 22:00 UTC
METAR SASA 242200Z NIL
Nan: NIL
METAR del 24-06-2018 a las 22:00 UTC
METAR SAZN 242200Z 32004KT CAVOK 08/M06 Q1013
Viento: dirección 320 grados, velocidad 4 nudos
Visibilidad: 10 km o más,
    sin nubes bajo los 5.000 pies o bajo del MSA (Mínimo de Seguridad del Aeródromo),
    sin cumulonimbus, y sin fenómenos de tiempo significativo en el aeródromo o alrededores
Temperatura: 8 °C
Rocío: -6 °C
Humedad_relativa: 36%
Presión: 1013 hPa
METAR del 24-06-2018 a las 22:00 UTC
METAR SAZM 242200Z 32011KT CAVOK 05/M03 Q1016
Viento: dirección 320 grados, velocidad 11 nudos
Visibilidad: 10 km o más,
    sin nubes bajo los 5.000 pies o bajo del MSA (Mínimo de Seguridad del Aeródromo),
    sin cumulonimbus, y sin fenómenos de tiempo significativo en el aeródromo o alrededores
Temperatura: 5 °C
Rocío: -3 °C
Humedad_relativa: 56%
Presión: 1016 hPa
METAR del 24-06-2018 a las 22:00 UTC
METAR SASJ 242200Z 00000KT 9999 SCT030 BKN100 12/03 Q1016
Visibilidad: 10 km o más
Nubes: Nubosidad parcial a 3000 pies sobre el nivel del aeródromo
Nubes: Nublado a 10000 pies sobre el nivel del aeródromo
Temperatura: 12 °C
Rocío: 3 °C
Humedad_relativa: 54%
Presión: 1016 hPa
METAR del 24-06-2018 a las 22:00 UTC
METAR SAVC 242200Z 27007KT 9999 FEW035 SCT100 10/02 Q1003
Viento: dirección 270 grados, velocidad 7 nudos
Visibilidad: 10 km o más
Nubes: Escasa nubosidad a 3500 pies sobre el nivel del aeródromo
Nubes: Nubosidad parcial a 10000 pies sobre el nivel del aeródromo
Temperatura: 10 °C
Rocío: 2 °C
Humedad_relativa: 58%
Presión: 1003 hPa
METAR del 24-06-2018 a las 22:00 UTC
METAR SAWG 242200Z 25013KT CAVOK 02/M01 Q0995
Viento: dirección 250 grados, velocidad 13 nudos
Visibilidad: 10 km o más,
    sin nubes bajo los 5.000 pies o bajo del MSA (Mínimo de Seguridad del Aeródromo),
    sin cumulonimbus, y sin fenómenos de tiempo significativo en el aeródromo o alrededores
Temperatura: 2 °C
Rocío: -1 °C
Humedad_relativa: 81%
Presión: 995 hPa
METAR del 24-06-2018 a las 22:00 UTC
METAR SUMU 242200Z 32005KT CAVOK 04/M02 Q1021 NOSIG
Viento: dirección 320 grados, velocidad 5 nudos
Visibilidad: 10 km o más,
    sin nubes bajo los 5.000 pies o bajo del MSA (Mínimo de Seguridad del Aeródromo),
    sin cumulonimbus, y sin fenómenos de tiempo significativo en el aeródromo o alrededores
Temperatura: 4 °C
Rocío: -2 °C
Humedad_relativa: 65%
Presión: 1021 hPa
No se esperan cambios significativos en las próximas 2 horas
METAR del 24-06-2018 a las 22:00 UTC
METAR SPJC 242200Z 16008KT 9999 OVC020 17/14 Q1014 NOSIG RMK PP000
Viento: dirección 160 grados, velocidad 8 nudos
Visibilidad: 10 km o más
Nubes: Cubierto a 2000 pies sobre el nivel del aeródromo
Temperatura: 17 °C
Rocío: 14 °C
Humedad_relativa: 83%
Presión: 1014 hPa
No se esperan cambios significativos en las próximas 2 horas
Información adicional:
Nan: PP000